sensor_id;sensor_type;location;lat;lon;timestamp;temperature;humidity
66271;DHT22;53063;39.614;8.814;2023-04-06T00:01:40;8.20;99.90
66271;DHT22;53063;39.614;8.814;2023-04-06T00:04:06;8.20;99.90
66271;DHT22;53063;39.614;8.814;2023-04-06T00:06:32;8.20;99.90
66271;DHT22;53063;39.614;8.814;2023-04-06T00:08:59;8.10;99.90
66271;DHT22;53063;39.614;8.814;2023-04-06T00:11:25;8.10;99.90
66271;DHT22;53063;39.614;8.814;2023-04-06T00:13:52;8.10;99.90
66271;DHT22;53063;39.614;8.814;2023-04-06T00:16:18;8.00;99.90
66271;DHT22;53063;39.614;8.814;2023-04-06T00:18:44;8.00;99.90
66271;DHT22;53063;39.614;8.814;2023-04-06T00:21:14;8.00;99.90
66271;DHT22;53063;39.614;8.814;2023-04-06T00:23:41;7.90;99.90
66271;DHT22;53063;39.614;8.814;2023-04-06T00:26:08;7.90;99.90
66271;DHT22;53063;39.614;8.814;2023-04-06T00:28:34;7.90;99.90
66271;DHT22;53063;39.614;8.814;2023-04-06T00:31:00;7.90;99.90
66271;DHT22;53063;39.614;8.814;2023-04-06T00:33:26;7.90;99.90
66271;DHT22;53063;39.614;8.814;2023-04-06T00:35:52;7.90;99.90
66271;DHT22;53063;39.614;8.814;2023-04-06T00:38:18;7.90;99.90
66271;DHT22;53063;39.614;8.814;2023-04-06T00:40:44;7.80;99.90
66271;DHT22;53063;39.614;8.814;2023-04-06T00:43:11;7.80;99.90
66271;DHT22;53063;39.614;8.814;2023-04-06T00:45:41;7.80;99.90
66271;DHT22;53063;39.614;8.814;2023-04-06T00:48:07;7.60;99.90
66271;DHT22;53063;39.614;8.814;2023-04-06T00:50:34;7.70;99.90
66271;DHT22;53063;39.614;8.814;2023-04-06T00:53:01;7.90;99.90
66271;DHT22;53063;39.614;8.814;2023-04-06T00:55:30;7.80;99.90
66271;DHT22;53063;39.614;8.814;2023-04-06T00:57:59;7.80;99.90
66271;DHT22;53063;39.614;8.814;2023-04-06T01:00:29;7.90;99.90
66271;DHT22;53063;39.614;8.814;2023-04-06T01:02:58;7.80;99.90
66271;DHT22;53063;39.614;8.814;2023-04-06T01:05:36;7.80;99.90
66271;DHT22;53063;39.614;8.814;2023-04-06T01:08:09;7.80;99.90
66271;DHT22;53063;39.614;8.814;2023-04-06T01:10:35;7.70;99.90
66271;DHT22;53063;39.614;8.814;2023-04-06T01:13:14;7.50;99.90
66271;DHT22;53063;39.614;8.814;2023-04-06T01:16:06;7.50;99.90
66271;DHT22;53063;39.614;8.814;2023-04-06T01:18:44;7.50;99.90
66271;DHT22;53063;39.614;8.814;2023-04-06T01:21:24;7.10;99.90
66271;DHT22;53063;39.614;8.814;2023-04-06T01:24:08;7.10;99.90
66271;DHT22;53063;39.614;8.814;2023-04-06T01:26:49;7.20;99.90
66271;DHT22;53063;39.614;8.814;2023-04-06T01:29:15;7.20;99.90
66271;DHT22;53063;39.614;8.814;2023-04-06T01:31:42;7.20;99.90
66271;DHT22;53063;39.614;8.814;2023-04-06T01:34:08;7.30;99.90
66271;DHT22;53063;39.614;8.814;2023-04-06T01:36:34;7.20;99.90
66271;DHT22;53063;39.614;8.814;2023-04-06T01:39:15;7.10;99.90
66271;DHT22;53063;39.614;8.814;2023-04-06T01:41:41;7.10;99.90
66271;DHT22;53063;39.614;8.814;2023-04-06T01:44:08;7.00;99.90
66271;DHT22;53063;39.614;8.814;2023-04-06T01:46:34;6.80;99.90
66271;DHT22;53063;39.614;8.814;2023-04-06T01:49:03;6.70;99.90
66271;DHT22;53063;39.614;8.814;2023-04-06T01:51:40;6.60;99.90
66271;DHT22;53063;39.614;8.814;2023-04-06T01:54:10;6.60;99.90
66271;DHT22;53063;39.614;8.814;2023-04-06T01:56:54;6.70;99.90
66271;DHT22;53063;39.614;8.814;2023-04-06T01:59:27;6.60;99.90
66271;DHT22;53063;39.614;8.814;2023-04-06T02:01:54;6.80;99.90
66271;DHT22;53063;39.614;8.814;2023-04-06T02:04:24;6.90;99.90
66271;DHT22;53063;39.614;8.814;2023-04-06T02:06:56;6.90;99.90
66271;DHT22;53063;39.614;8.814;2023-04-06T02:09:25;6.80;99.90
66271;DHT22;53063;39.614;8.814;2023-04-06T02:11:51;6.70;99.90
66271;DHT22;53063;39.614;8.814;2023-04-06T02:14:17;6.50;99.90
66271;DHT22;53063;39.614;8.814;2023-04-06T02:16:49;6.40;99.90
66271;DHT22;53063;39.614;8.814;2023-04-06T02:19:15;6.50;99.90
66271;DHT22;53063;39.614;8.814;2023-04-06T02:21:42;6.60;99.90
66271;DHT22;53063;39.614;8.814;2023-04-06T02:24:08;6.70;99.90
66271;DHT22;53063;39.614;8.814;2023-04-06T02:26:34;6.80;99.90
66271;DHT22;53063;39.614;8.814;2023-04-06T02:29:00;7.00;99.90
66271;DHT22;53063;39.614;8.814;2023-04-06T02:31:27;7.10;99.90
66271;DHT22;53063;39.614;8.814;2023-04-06T02:33:54;7.20;99.90
66271;DHT22;53063;39.614;8.814;2023-04-06T02:36:20;7.30;99.90
66271;DHT22;53063;39.614;8.814;2023-04-06T02:38:46;7.40;99.90
66271;DHT22;53063;39.614;8.814;2023-04-06T02:41:11;7.30;99.10
66271;DHT22;53063;39.614;8.814;2023-04-06T02:43:38;7.10;99.30
66271;DHT22;53063;39.614;8.814;2023-04-06T02:46:22;7.30;99.20
66271;DHT22;53063;39.614;8.814;2023-04-06T02:48:47;7.40;98.70
66271;DHT22;53063;39.614;8.814;2023-04-06T02:51:14;7.40;97.90
66271;DHT22;53063;39.614;8.814;2023-04-06T02:53:43;7.40;97.30
66271;DHT22;53063;39.614;8.814;2023-04-06T02:56:10;7.20;97.20
66271;DHT22;53063;39.614;8.814;2023-04-06T02:58:49;7.20;97.70
66271;DHT22;53063;39.614;8.814;2023-04-06T03:01:17;6.80;97.90
66271;DHT22;53063;39.614;8.814;2023-04-06T03:03:43;6.70;99.10
66271;DHT22;53063;39.614;8.814;2023-04-06T03:06:16;6.80;99.80
66271;DHT22;53063;39.614;8.814;2023-04-06T03:08:43;6.70;99.90
66271;DHT22;53063;39.614;8.814;2023-04-06T03:11:10;6.70;99.90
66271;DHT22;53063;39.614;8.814;2023-04-06T03:13:39;6.80;99.90
66271;DHT22;53063;39.614;8.814;2023-04-06T03:16:06;6.70;99.90
66271;DHT22;53063;39.614;8.814;2023-04-06T03:18:32;6.70;99.90
66271;DHT22;53063;39.614;8.814;2023-04-06T03:20:58;6.70;99.90
66271;DHT22;53063;39.614;8.814;2023-04-06T03:23:33;6.60;99.90
66271;DHT22;53063;39.614;8.814;2023-04-06T03:26:02;6.60;99.90
66271;DHT22;53063;39.614;8.814;2023-04-06T03:28:28;6.60;99.90
66271;DHT22;53063;39.614;8.814;2023-04-06T03:30:58;6.50;99.90
66271;DHT22;53063;39.614;8.814;2023-04-06T03:33:59;6.50;99.90
66271;DHT22;53063;39.614;8.814;2023-04-06T03:36:29;6.30;99.90
66271;DHT22;53063;39.614;8.814;2023-04-06T03:38:57;6.20;99.90
66271;DHT22;53063;39.614;8.814;2023-04-06T03:41:23;6.10;99.90
66271;DHT22;53063;39.614;8.814;2023-04-06T03:43:56;6.10;99.90
66271;DHT22;53063;39.614;8.814;2023-04-06T03:46:22;6.20;99.90
66271;DHT22;53063;39.614;8.814;2023-04-06T03:48:52;6.20;99.90
66271;DHT22;53063;39.614;8.814;2023-04-06T03:51:20;6.20;99.90
66271;DHT22;53063;39.614;8.814;2023-04-06T03:53:47;6.10;99.90
66271;DHT22;53063;39.614;8.814;2023-04-06T03:56:13;6.10;99.90
66271;DHT22;53063;39.614;8.814;2023-04-06T03:58:39;5.80;99.90
66271;DHT22;53063;39.614;8.814;2023-04-06T04:01:05;5.70;99.90
66271;DHT22;53063;39.614;8.814;2023-04-06T04:03:33;5.90;99.90
66271;DHT22;53063;39.614;8.814;2023-04-06T04:05:59;5.90;99.90
66271;DHT22;53063;39.614;8.814;2023-04-06T04:08:25;6.00;99.90
66271;DHT22;53063;39.614;8.814;2023-04-06T04:10:51;6.00;99.90
66271;DHT22;53063;39.614;8.814;2023-04-06T04:13:18;5.80;99.90
66271;DHT22;53063;39.614;8.814;2023-04-06T04:15:47;5.50;99.90
66271;DHT22;53063;39.614;8.814;2023-04-06T04:18:14;5.80;99.90
66271;DHT22;53063;39.614;8.814;2023-04-06T04:20:41;6.00;99.90
66271;DHT22;53063;39.614;8.814;2023-04-06T04:23:09;6.00;99.90
66271;DHT22;53063;39.614;8.814;2023-04-06T04:25:35;6.10;99.90
66271;DHT22;53063;39.614;8.814;2023-04-06T04:28:02;6.20;99.90
66271;DHT22;53063;39.614;8.814;2023-04-06T04:30:28;6.20;99.90
66271;DHT22;53063;39.614;8.814;2023-04-06T04:32:54;6.20;99.90
66271;DHT22;53063;39.614;8.814;2023-04-06T04:35:22;5.90;99.90
66271;DHT22;53063;39.614;8.814;2023-04-06T04:37:49;5.90;99.90
66271;DHT22;53063;39.614;8.814;2023-04-06T04:40:15;5.60;99.90
66271;DHT22;53063;39.614;8.814;2023-04-06T04:42:56;5.00;99.90
66271;DHT22;53063;39.614;8.814;2023-04-06T04:45:30;4.80;99.90
66271;DHT22;53063;39.614;8.814;2023-04-06T04:47:59;5.00;99.90
66271;DHT22;53063;39.614;8.814;2023-04-06T04:50:31;5.20;99.90
66271;DHT22;53063;39.614;8.814;2023-04-06T04:52:58;5.30;99.90
66271;DHT22;53063;39.614;8.814;2023-04-06T04:55:25;5.30;99.90
66271;DHT22;53063;39.614;8.814;2023-04-06T04:57:54;5.20;99.90
66271;DHT22;53063;39.614;8.814;2023-04-06T05:00:26;5.10;99.90
66271;DHT22;53063;39.614;8.814;2023-04-06T05:02:56;5.20;99.90
66271;DHT22;53063;39.614;8.814;2023-04-06T05:05:25;5.30;99.90
66271;DHT22;53063;39.614;8.814;2023-04-06T05:07:51;5.50;99.90
66271;DHT22;53063;39.614;8.814;2023-04-06T05:10:27;5.50;99.90
66271;DHT22;53063;39.614;8.814;2023-04-06T05:12:58;5.40;99.90
66271;DHT22;53063;39.614;8.814;2023-04-06T05:15:25;5.50;99.90
66271;DHT22;53063;39.614;8.814;2023-04-06T05:17:56;5.70;99.90
66271;DHT22;53063;39.614;8.814;2023-04-06T05:20:29;6.00;99.90
66271;DHT22;53063;39.614;8.814;2023-04-06T05:22:55;6.20;99.90
66271;DHT22;53063;39.614;8.814;2023-04-06T05:25:21;5.90;99.90
66271;DHT22;53063;39.614;8.814;2023-04-06T05:27:50;5.80;99.90
66271;DHT22;53063;39.614;8.814;2023-04-06T05:30:27;6.10;99.90
66271;DHT22;53063;39.614;8.814;2023-04-06T05:32:53;6.10;99.90
66271;DHT22;53063;39.614;8.814;2023-04-06T05:35:21;6.00;99.90
66271;DHT22;53063;39.614;8.814;2023-04-06T05:37:51;6.10;99.90
66271;DHT22;53063;39.614;8.814;2023-04-06T05:40:21;6.20;99.90
66271;DHT22;53063;39.614;8.814;2023-04-06T05:42:47;6.50;99.90
66271;DHT22;53063;39.614;8.814;2023-04-06T05:45:15;6.80;99.90
66271;DHT22;53063;39.614;8.814;2023-04-06T05:47:45;7.00;99.90
66271;DHT22;53063;39.614;8.814;2023-04-06T05:50:24;7.20;99.90
66271;DHT22;53063;39.614;8.814;2023-04-06T05:52:50;7.50;99.90
66271;DHT22;53063;39.614;8.814;2023-04-06T05:55:19;7.50;99.90
66271;DHT22;53063;39.614;8.814;2023-04-06T05:57:51;7.60;99.90
66271;DHT22;53063;39.614;8.814;2023-04-06T06:00:19;7.90;99.90
66271;DHT22;53063;39.614;8.814;2023-04-06T06:02:54;8.10;99.90
66271;DHT22;53063;39.614;8.814;2023-04-06T06:05:25;8.40;99.60
66271;DHT22;53063;39.614;8.814;2023-04-06T06:07:52;9.00;97.60
66271;DHT22;53063;39.614;8.814;2023-04-06T06:10:19;9.70;95.20
66271;DHT22;53063;39.614;8.814;2023-04-06T06:12:45;10.80;91.40
66271;DHT22;53063;39.614;8.814;2023-04-06T06:15:12;11.90;85.20
66271;DHT22;53063;39.614;8.814;2023-04-06T06:17:43;11.80;79.60
66271;DHT22;53063;39.614;8.814;2023-04-06T06:20:10;10.40;81.20
66271;DHT22;53063;39.614;8.814;2023-04-06T06:22:36;11.50;81.50
66271;DHT22;53063;39.614;8.814;2023-04-06T06:25:03;12.50;78.70
66271;DHT22;53063;39.614;8.814;2023-04-06T06:27:29;13.20;73.10
66271;DHT22;53063;39.614;8.814;2023-04-06T06:29:55;14.00;70.80
66271;DHT22;53063;39.614;8.814;2023-04-06T06:32:22;13.50;68.10
66271;DHT22;53063;39.614;8.814;2023-04-06T06:34:51;11.90;71.60
66271;DHT22;53063;39.614;8.814;2023-04-06T06:37:18;11.50;76.00
66271;DHT22;53063;39.614;8.814;2023-04-06T06:39:44;11.70;74.20
66271;DHT22;53063;39.614;8.814;2023-04-06T06:42:10;11.30;76.90
66271;DHT22;53063;39.614;8.814;2023-04-06T06:45:07;12.90;74.80
66271;DHT22;53063;39.614;8.814;2023-04-06T06:47:33;14.30;69.00
66271;DHT22;53063;39.614;8.814;2023-04-06T06:49:59;14.80;67.10
66271;DHT22;53063;39.614;8.814;2023-04-06T06:52:25;13.30;68.50
66271;DHT22;53063;39.614;8.814;2023-04-06T06:54:51;13.20;72.70
66271;DHT22;53063;39.614;8.814;2023-04-06T06:57:18;13.90;71.40
66271;DHT22;53063;39.614;8.814;2023-04-06T06:59:46;13.90;69.50
66271;DHT22;53063;39.614;8.814;2023-04-06T07:02:12;13.00;71.10
66271;DHT22;53063;39.614;8.814;2023-04-06T07:04:38;12.40;77.50
66271;DHT22;53063;39.614;8.814;2023-04-06T07:07:04;13.30;74.70
66271;DHT22;53063;39.614;8.814;2023-04-06T07:09:30;14.20;70.10
66271;DHT22;53063;39.614;8.814;2023-04-06T07:11:56;15.20;64.90
66271;DHT22;53063;39.614;8.814;2023-04-06T07:14:22;15.70;63.60
66271;DHT22;53063;39.614;8.814;2023-04-06T07:16:48;18.00;58.10
66271;DHT22;53063;39.614;8.814;2023-04-06T07:19:15;18.40;54.50
66271;DHT22;53063;39.614;8.814;2023-04-06T07:21:42;19.20;52.60
66271;DHT22;53063;39.614;8.814;2023-04-06T07:24:08;20.50;48.60
66271;DHT22;53063;39.614;8.814;2023-04-06T07:26:33;20.50;46.60
66271;DHT22;53063;39.614;8.814;2023-04-06T07:29:00;20.70;47.20
66271;DHT22;53063;39.614;8.814;2023-04-06T07:31:26;21.30;45.70
66271;DHT22;53063;39.614;8.814;2023-04-06T07:33:52;21.10;44.90
66271;DHT22;53063;39.614;8.814;2023-04-06T07:36:18;21.00;45.00
66271;DHT22;53063;39.614;8.814;2023-04-06T07:38:44;21.50;44.50
66271;DHT22;53063;39.614;8.814;2023-04-06T07:41:12;21.70;43.90
66271;DHT22;53063;39.614;8.814;2023-04-06T07:43:38;21.50;45.20
66271;DHT22;53063;39.614;8.814;2023-04-06T07:46:06;21.60;45.20
66271;DHT22;53063;39.614;8.814;2023-04-06T07:48:32;21.70;45.30
66271;DHT22;53063;39.614;8.814;2023-04-06T07:51:03;21.70;43.50
66271;DHT22;53063;39.614;8.814;2023-04-06T07:53:30;22.70;43.20
66271;DHT22;53063;39.614;8.814;2023-04-06T07:56:00;23.90;41.70
66271;DHT22;53063;39.614;8.814;2023-04-06T07:58:26;23.40;41.30
66271;DHT22;53063;39.614;8.814;2023-04-06T08:00:52;23.80;42.20
66271;DHT22;53063;39.614;8.814;2023-04-06T08:03:18;24.60;40.80
66271;DHT22;53063;39.614;8.814;2023-04-06T08:05:46;24.20;39.30
66271;DHT22;53063;39.614;8.814;2023-04-06T08:08:12;21.20;44.50
66271;DHT22;53063;39.614;8.814;2023-04-06T08:10:38;18.70;51.70
66271;DHT22;53063;39.614;8.814;2023-04-06T08:13:04;18.10;54.90
66271;DHT22;53063;39.614;8.814;2023-04-06T08:15:30;16.90;54.10
66271;DHT22;53063;39.614;8.814;2023-04-06T08:17:56;16.70;55.60
66271;DHT22;53063;39.614;8.814;2023-04-06T08:20:22;16.40;57.30
66271;DHT22;53063;39.614;8.814;2023-04-06T08:22:48;16.90;57.90
66271;DHT22;53063;39.614;8.814;2023-04-06T08:25:14;16.90;58.30
66271;DHT22;53063;39.614;8.814;2023-04-06T08:27:40;17.10;57.00
66271;DHT22;53063;39.614;8.814;2023-04-06T08:30:06;17.00;57.50
66271;DHT22;53063;39.614;8.814;2023-04-06T08:32:32;17.20;55.80
66271;DHT22;53063;39.614;8.814;2023-04-06T08:34:58;17.60;54.60
66271;DHT22;53063;39.614;8.814;2023-04-06T08:37:24;17.10;54.80
66271;DHT22;53063;39.614;8.814;2023-04-06T08:39:50;17.30;55.50
66271;DHT22;53063;39.614;8.814;2023-04-06T08:42:20;16.80;53.90
66271;DHT22;53063;39.614;8.814;2023-04-06T08:44:48;16.60;54.30
66271;DHT22;53063;39.614;8.814;2023-04-06T08:47:14;16.70;57.60
66271;DHT22;53063;39.614;8.814;2023-04-06T08:49:40;16.60;53.20
66271;DHT22;53063;39.614;8.814;2023-04-06T08:52:07;17.20;53.70
66271;DHT22;53063;39.614;8.814;2023-04-06T08:54:34;17.00;51.30
66271;DHT22;53063;39.614;8.814;2023-04-06T08:57:01;15.90;56.50
66271;DHT22;53063;39.614;8.814;2023-04-06T08:59:27;17.40;55.10
66271;DHT22;53063;39.614;8.814;2023-04-06T09:01:54;18.40;51.90
66271;DHT22;53063;39.614;8.814;2023-04-06T09:04:21;18.50;50.30
66271;DHT22;53063;39.614;8.814;2023-04-06T09:06:47;18.70;50.90
66271;DHT22;53063;39.614;8.814;2023-04-06T09:09:13;18.00;52.30
66271;DHT22;53063;39.614;8.814;2023-04-06T09:11:56;17.30;54.80
66271;DHT22;53063;39.614;8.814;2023-04-06T09:14:35;18.50;50.60
66271;DHT22;53063;39.614;8.814;2023-04-06T09:17:02;18.90;49.80
66271;DHT22;53063;39.614;8.814;2023-04-06T09:19:28;19.60;47.60
66271;DHT22;53063;39.614;8.814;2023-04-06T09:22:04;19.60;46.40
66271;DHT22;53063;39.614;8.814;2023-04-06T09:24:47;19.10;46.00
66271;DHT22;53063;39.614;8.814;2023-04-06T09:27:14;19.30;47.70
66271;DHT22;53063;39.614;8.814;2023-04-06T09:29:42;18.50;48.60
66271;DHT22;53063;39.614;8.814;2023-04-06T09:32:09;19.10;49.40
66271;DHT22;53063;39.614;8.814;2023-04-06T09:34:42;19.70;48.50
66271;DHT22;53063;39.614;8.814;2023-04-06T09:37:18;18.70;50.20
66271;DHT22;53063;39.614;8.814;2023-04-06T09:39:45;19.50;47.70
66271;DHT22;53063;39.614;8.814;2023-04-06T09:42:26;18.90;47.80
66271;DHT22;53063;39.614;8.814;2023-04-06T09:44:52;17.70;48.50
66271;DHT22;53063;39.614;8.814;2023-04-06T09:47:19;18.10;49.00
66271;DHT22;53063;39.614;8.814;2023-04-06T09:49:48;19.50;47.00
66271;DHT22;53063;39.614;8.814;2023-04-06T09:52:16;20.30;44.50
66271;DHT22;53063;39.614;8.814;2023-04-06T09:54:43;20.70;43.90
66271;DHT22;53063;39.614;8.814;2023-04-06T09:57:31;19.40;45.80
66271;DHT22;53063;39.614;8.814;2023-04-06T10:00:04;20.10;46.60
66271;DHT22;53063;39.614;8.814;2023-04-06T10:05:48;20.40;46.20
66271;DHT22;53063;39.614;8.814;2023-04-06T10:08:16;20.70;44.30
66271;DHT22;53063;39.614;8.814;2023-04-06T10:10:43;20.60;44.20
66271;DHT22;53063;39.614;8.814;2023-04-06T10:13:11;19.90;46.30
66271;DHT22;53063;39.614;8.814;2023-04-06T10:15:38;19.80;48.20
66271;DHT22;53063;39.614;8.814;2023-04-06T10:18:06;18.60;48.50
66271;DHT22;53063;39.614;8.814;2023-04-06T10:21:01;20.40;46.60
66271;DHT22;53063;39.614;8.814;2023-04-06T10:23:36;20.90;46.10
66271;DHT22;53063;39.614;8.814;2023-04-06T10:26:05;20.80;44.20
66271;DHT22;53063;39.614;8.814;2023-04-06T10:28:33;20.30;44.10
66271;DHT22;53063;39.614;8.814;2023-04-06T10:31:02;20.10;44.40
66271;DHT22;53063;39.614;8.814;2023-04-06T10:33:29;20.80;43.60
66271;DHT22;53063;39.614;8.814;2023-04-06T10:35:56;21.10;42.80
66271;DHT22;53063;39.614;8.814;2023-04-06T10:38:33;21.70;42.20
66271;DHT22;53063;39.614;8.814;2023-04-06T10:41:10;21.80;42.50
66271;DHT22;53063;39.614;8.814;2023-04-06T10:43:38;21.90;43.10
66271;DHT22;53063;39.614;8.814;2023-04-06T10:46:06;21.70;44.00
66271;DHT22;53063;39.614;8.814;2023-04-06T10:48:43;21.90;43.20
66271;DHT22;53063;39.614;8.814;2023-04-06T10:51:16;21.20;42.50
66271;DHT22;53063;39.614;8.814;2023-04-06T10:53:44;21.50;41.60
66271;DHT22;53063;39.614;8.814;2023-04-06T10:56:13;20.90;44.60
66271;DHT22;53063;39.614;8.814;2023-04-06T10:58:47;21.50;43.60
66271;DHT22;53063;39.614;8.814;2023-04-06T11:01:18;22.10;42.20
66271;DHT22;53063;39.614;8.814;2023-04-06T11:06:10;19.80;43.80
66271;DHT22;53063;39.614;8.814;2023-04-06T11:08:37;21.40;41.70
66271;DHT22;53063;39.614;8.814;2023-04-06T11:14:03;21.70;40.30
66271;DHT22;53063;39.614;8.814;2023-04-06T11:16:30;21.40;39.50
66271;DHT22;53063;39.614;8.814;2023-04-06T11:24:17;20.40;38.00
66271;DHT22;53063;39.614;8.814;2023-04-06T11:26:55;20.20;39.90
66271;DHT22;53063;39.614;8.814;2023-04-06T11:29:22;19.80;41.20
66271;DHT22;53063;39.614;8.814;2023-04-06T11:31:54;21.50;39.30
66271;DHT22;53063;39.614;8.814;2023-04-06T11:34:24;22.20;38.00
66271;DHT22;53063;39.614;8.814;2023-04-06T11:37:02;21.70;40.90
66271;DHT22;53063;39.614;8.814;2023-04-06T11:39:31;22.00;37.80
66271;DHT22;53063;39.614;8.814;2023-04-06T11:42:01;22.20;38.40
66271;DHT22;53063;39.614;8.814;2023-04-06T11:44:37;22.20;38.60
66271;DHT22;53063;39.614;8.814;2023-04-06T11:47:10;22.70;38.70
66271;DHT22;53063;39.614;8.814;2023-04-06T11:49:40;22.20;39.60
66271;DHT22;53063;39.614;8.814;2023-04-06T11:52:21;22.60;38.30
66271;DHT22;53063;39.614;8.814;2023-04-06T11:54:48;22.40;37.80
66271;DHT22;53063;39.614;8.814;2023-04-06T11:57:15;22.40;39.90
66271;DHT22;53063;39.614;8.814;2023-04-06T11:59:42;21.90;39.30
66271;DHT22;53063;39.614;8.814;2023-04-06T12:02:09;22.20;38.70
66271;DHT22;53063;39.614;8.814;2023-04-06T12:04:35;22.50;38.70
66271;DHT22;53063;39.614;8.814;2023-04-06T12:07:01;22.40;38.00
66271;DHT22;53063;39.614;8.814;2023-04-06T12:09:27;22.60;38.20
66271;DHT22;53063;39.614;8.814;2023-04-06T12:11:53;22.40;37.90
66271;DHT22;53063;39.614;8.814;2023-04-06T12:14:19;21.90;40.10
66271;DHT22;53063;39.614;8.814;2023-04-06T12:16:45;21.80;39.30
66271;DHT22;53063;39.614;8.814;2023-04-06T12:19:11;22.10;40.70
66271;DHT22;53063;39.614;8.814;2023-04-06T12:21:37;22.10;40.30
66271;DHT22;53063;39.614;8.814;2023-04-06T12:24:04;22.20;40.60
66271;DHT22;53063;39.614;8.814;2023-04-06T12:26:31;21.80;41.60
66271;DHT22;53063;39.614;8.814;2023-04-06T12:28:58;22.00;41.40
66271;DHT22;53063;39.614;8.814;2023-04-06T12:31:28;21.00;41.40
66271;DHT22;53063;39.614;8.814;2023-04-06T12:33:54;21.50;42.10
66271;DHT22;53063;39.614;8.814;2023-04-06T12:36:20;20.90;42.80
66271;DHT22;53063;39.614;8.814;2023-04-06T12:38:47;21.70;42.70
66271;DHT22;53063;39.614;8.814;2023-04-06T12:41:14;21.70;42.10
66271;DHT22;53063;39.614;8.814;2023-04-06T12:43:41;22.10;42.30
66271;DHT22;53063;39.614;8.814;2023-04-06T12:46:07;22.30;40.70
66271;DHT22;53063;39.614;8.814;2023-04-06T12:48:33;22.00;40.80
66271;DHT22;53063;39.614;8.814;2023-04-06T12:51:01;22.10;40.80
66271;DHT22;53063;39.614;8.814;2023-04-06T12:53:28;22.30;39.70
66271;DHT22;53063;39.614;8.814;2023-04-06T12:55:55;22.30;39.50
66271;DHT22;53063;39.614;8.814;2023-04-06T12:58:21;22.30;39.60
66271;DHT22;53063;39.614;8.814;2023-04-06T13:00:48;21.80;40.10
66271;DHT22;53063;39.614;8.814;2023-04-06T13:03:14;21.50;39.60
66271;DHT22;53063;39.614;8.814;2023-04-06T13:05:47;21.50;39.30
66271;DHT22;53063;39.614;8.814;2023-04-06T13:08:14;21.70;39.10
66271;DHT22;53063;39.614;8.814;2023-04-06T13:10:47;21.80;39.40
66271;DHT22;53063;39.614;8.814;2023-04-06T13:13:17;21.50;39.80
66271;DHT22;53063;39.614;8.814;2023-04-06T13:15:44;21.40;40.40
66271;DHT22;53063;39.614;8.814;2023-04-06T13:18:10;21.30;40.50
66271;DHT22;53063;39.614;8.814;2023-04-06T13:20:36;21.50;40.50
66271;DHT22;53063;39.614;8.814;2023-04-06T13:23:02;21.20;42.30
66271;DHT22;53063;39.614;8.814;2023-04-06T13:25:29;21.20;40.80
66271;DHT22;53063;39.614;8.814;2023-04-06T13:27:55;21.30;40.40
66271;DHT22;53063;39.614;8.814;2023-04-06T13:30:21;21.00;40.00
66271;DHT22;53063;39.614;8.814;2023-04-06T13:32:47;20.80;40.70
66271;DHT22;53063;39.614;8.814;2023-04-06T13:35:13;20.80;41.70
66271;DHT22;53063;39.614;8.814;2023-04-06T13:37:39;21.00;41.30
66271;DHT22;53063;39.614;8.814;2023-04-06T13:40:05;20.80;41.10
66271;DHT22;53063;39.614;8.814;2023-04-06T13:42:33;20.50;41.30
66271;DHT22;53063;39.614;8.814;2023-04-06T13:45:01;20.50;41.20
66271;DHT22;53063;39.614;8.814;2023-04-06T13:47:27;20.50;40.70
66271;DHT22;53063;39.614;8.814;2023-04-06T13:49:54;20.00;40.70
66271;DHT22;53063;39.614;8.814;2023-04-06T13:52:21;19.90;41.40
66271;DHT22;53063;39.614;8.814;2023-04-06T13:54:49;19.70;41.40
66271;DHT22;53063;39.614;8.814;2023-04-06T13:57:16;19.60;41.20
66271;DHT22;53063;39.614;8.814;2023-04-06T13:59:42;19.90;41.70
66271;DHT22;53063;39.614;8.814;2023-04-06T14:02:09;19.80;40.80
66271;DHT22;53063;39.614;8.814;2023-04-06T14:04:36;19.70;40.80
66271;DHT22;53063;39.614;8.814;2023-04-06T14:07:03;19.60;41.20
66271;DHT22;53063;39.614;8.814;2023-04-06T14:09:29;19.60;41.20
66271;DHT22;53063;39.614;8.814;2023-04-06T14:11:56;19.20;41.30
66271;DHT22;53063;39.614;8.814;2023-04-06T14:14:23;19.30;42.80
66271;DHT22;53063;39.614;8.814;2023-04-06T14:16:49;19.50;43.10
66271;DHT22;53063;39.614;8.814;2023-04-06T14:19:16;19.10;44.00
66271;DHT22;53063;39.614;8.814;2023-04-06T14:21:47;18.90;44.20
66271;DHT22;53063;39.614;8.814;2023-04-06T14:24:14;18.60;45.00
66271;DHT22;53063;39.614;8.814;2023-04-06T14:26:41;18.80;46.00
66271;DHT22;53063;39.614;8.814;2023-04-06T14:29:08;19.00;44.90
66271;DHT22;53063;39.614;8.814;2023-04-06T14:31:35;18.70;43.60
66271;DHT22;53063;39.614;8.814;2023-04-06T14:34:02;18.70;44.70
66271;DHT22;53063;39.614;8.814;2023-04-06T14:36:31;18.70;45.10
66271;DHT22;53063;39.614;8.814;2023-04-06T14:39:05;19.00;44.90
66271;DHT22;53063;39.614;8.814;2023-04-06T14:41:33;18.40;44.50
66271;DHT22;53063;39.614;8.814;2023-04-06T14:43:59;18.40;45.00
66271;DHT22;53063;39.614;8.814;2023-04-06T14:46:25;18.40;45.40
66271;DHT22;53063;39.614;8.814;2023-04-06T14:48:55;18.30;45.20
66271;DHT22;53063;39.614;8.814;2023-04-06T14:51:23;18.10;46.20
66271;DHT22;53063;39.614;8.814;2023-04-06T14:53:49;18.00;45.30
66271;DHT22;53063;39.614;8.814;2023-04-06T14:56:22;17.90;43.40
66271;DHT22;53063;39.614;8.814;2023-04-06T14:58:49;17.80;44.60
66271;DHT22;53063;39.614;8.814;2023-04-06T15:01:18;17.70;45.70
66271;DHT22;53063;39.614;8.814;2023-04-06T15:03:44;17.80;45.10
66271;DHT22;53063;39.614;8.814;2023-04-06T15:06:14;17.60;43.90
66271;DHT22;53063;39.614;8.814;2023-04-06T15:08:43;17.60;44.90
66271;DHT22;53063;39.614;8.814;2023-04-06T15:11:10;17.60;44.90
66271;DHT22;53063;39.614;8.814;2023-04-06T15:13:37;17.60;43.10
66271;DHT22;53063;39.614;8.814;2023-04-06T15:16:04;17.50;44.90
66271;DHT22;53063;39.614;8.814;2023-04-06T15:18:30;17.50;45.30
66271;DHT22;53063;39.614;8.814;2023-04-06T15:20:56;17.30;43.60
66271;DHT22;53063;39.614;8.814;2023-04-06T15:23:22;17.20;43.60
66271;DHT22;53063;39.614;8.814;2023-04-06T15:25:48;17.00;45.10
66271;DHT22;53063;39.614;8.814;2023-04-06T15:28:15;17.20;46.50
66271;DHT22;53063;39.614;8.814;2023-04-06T15:30:41;17.00;44.70
66271;DHT22;53063;39.614;8.814;2023-04-06T15:33:08;17.10;44.50
66271;DHT22;53063;39.614;8.814;2023-04-06T15:35:34;17.00;45.90
66271;DHT22;53063;39.614;8.814;2023-04-06T15:38:08;17.00;45.70
66271;DHT22;53063;39.614;8.814;2023-04-06T15:40:41;16.80;45.30
66271;DHT22;53063;39.614;8.814;2023-04-06T15:43:07;16.80;44.60
66271;DHT22;53063;39.614;8.814;2023-04-06T15:45:33;16.60;44.80
66271;DHT22;53063;39.614;8.814;2023-04-06T15:47:59;16.70;45.50
66271;DHT22;53063;39.614;8.814;2023-04-06T15:50:25;17.00;45.80
66271;DHT22;53063;39.614;8.814;2023-04-06T15:52:52;16.90;46.70
66271;DHT22;53063;39.614;8.814;2023-04-06T15:55:18;16.50;45.90
66271;DHT22;53063;39.614;8.814;2023-04-06T15:57:44;16.40;47.70
66271;DHT22;53063;39.614;8.814;2023-04-06T16:00:10;16.30;48.20